Time;durP1;ratioP1;P1;durP2;ratioP2;P2;SDS_P1;SDS_P2;PMS_P1;PMS_P2;Temp;Humidity;BMP_temperature;BMP_pressure;BME280_temperature;BME280_humidity;BME280_pressure;Samples;Min_cycle;Max_cycle;Signal;HPM_P1;HPM_P2
2022/10/26 00:00:33;;;;;;;15.30;6.67;;;13.60;78.90;;;;;;5002166;28;20533;-77
2022/10/26 00:03:01;;;;;;;10.83;6.37;;;13.50;78.90;;;;;;5003838;28;20449;-79
2022/10/26 00:05:33;;;;;;;16.30;7.97;;;13.60;78.90;;;;;;5000267;28;20535;-77
2022/10/26 00:08:02;;;;;;;16.67;8.57;;;13.60;79.00;;;;;;5023180;28;20466;-77
2022/10/26 00:10:30;;;;;;;13.17;6.90;;;13.60;79.00;;;;;;5007021;28;20485;-79
2022/10/26 00:12:58;;;;;;;11.93;5.73;;;13.60;79.00;;;;;;5003933;28;20522;-78
2022/10/26 00:15:26;;;;;;;10.70;5.60;;;13.60;79.00;;;;;;5003826;28;20714;-77
2022/10/26 00:17:54;;;;;;;10.17;4.70;;;13.60;79.00;;;;;;5006562;28;20458;-78
2022/10/26 00:20:22;;;;;;;8.60;4.17;;;13.60;79.10;;;;;;5006856;28;20538;-78
2022/10/26 00:22:53;;;;;;;7.50;3.70;;;13.60;79.10;;;;;;5010810;28;21004;-77
2022/10/26 00:25:20;;;;;;;6.40;3.63;;;13.60;79.10;;;;;;5009589;28;20460;-79
2022/10/26 00:27:48;;;;;;;7.53;3.73;;;13.60;79.10;;;;;;5021994;28;20488;-77
2022/10/26 00:30:17;;;;;;;17.73;4.93;;;13.60;79.20;;;;;;5010241;28;20476;-78
2022/10/26 00:32:45;;;;;;;5.97;3.40;;;13.60;79.20;;;;;;5017466;28;20493;-77
2022/10/26 00:35:13;;;;;;;9.50;4.90;;;13.60;79.30;;;;;;5006907;28;20547;-79
2022/10/26 00:37:57;;;;;;;9.27;5.00;;;13.60;79.30;;;;;;5006484;28;20500;-78
2022/10/26 00:40:28;;;;;;;10.33;5.60;;;13.60;79.30;;;;;;5000249;28;20508;-77
2022/10/26 00:42:56;;;;;;;10.77;5.33;;;13.60;79.40;;;;;;5023801;28;20501;-77
2022/10/26 00:45:26;;;;;;;17.50;5.77;;;13.60;79.40;;;;;;5009259;28;20491;-78
2022/10/26 00:47:57;;;;;;;11.23;5.40;;;13.60;79.40;;;;;;5007754;28;20480;-77
2022/10/26 00:50:28;;;;;;;15.43;5.30;;;13.60;79.50;;;;;;5006664;28;20859;-77
2022/10/26 00:52:59;;;;;;;8.10;5.07;;;13.60;79.50;;;;;;5000444;28;20465;-79
2022/10/26 00:55:32;;;;;;;16.73;6.70;;;13.60;79.50;;;;;;5000642;28;20489;-76
2022/10/26 00:58:02;;;;;;;12.10;5.67;;;13.60;79.60;;;;;;5004422;28;21028;-78
2022/10/26 01:00:30;;;;;;;13.47;5.70;;;13.70;79.60;;;;;;5004616;28;20481;-77
2022/10/26 01:03:01;;;;;;;7.93;4.23;;;13.70;79.60;;;;;;4997942;28;20456;-77
2022/10/26 01:05:30;;;;;;;11.50;5.00;;;13.70;79.60;;;;;;4999988;28;20547;-77
2022/10/26 01:08:00;;;;;;;8.90;5.07;;;13.70;79.60;;;;;;5017627;28;20529;-77
2022/10/26 01:10:28;;;;;;;12.40;5.57;;;13.60;79.70;;;;;;4994539;28;20457;-78
2022/10/26 01:12:58;;;;;;;13.10;5.80;;;13.60;79.70;;;;;;5001479;28;20446;-78
2022/10/26 01:15:36;;;;;;;13.93;6.07;;;13.60;79.70;;;;;;5010948;28;20473;-78
2022/10/26 01:18:10;;;;;;;16.87;8.20;;;13.60;79.80;;;;;;5004312;28;20457;-78
2022/10/26 01:21:18;;;;;;;11.23;5.67;;;13.60;79.80;;;;;;5000729;28;20486;-78
2022/10/26 01:24:05;;;;;;;14.30;5.70;;;13.70;79.90;;;;;;5001833;28;21018;-78
2022/10/26 01:27:05;;;;;;;12.80;4.87;;;13.60;79.90;;;;;;4997272;28;20515;-78
2022/10/26 01:30:05;;;;;;;10.97;5.60;;;13.70;79.80;;;;;;4962885;28;20525;-78
2022/10/26 01:32:39;;;;;;;15.57;6.00;;;13.60;79.90;;;;;;5000079;28;20468;-78
2022/10/26 01:35:12;;;;;;;10.20;5.33;;;13.50;79.70;;;;;;5004497;28;20482;-78
2022/10/26 01:37:47;;;;;;;14.60;5.10;;;13.50;79.70;;;;;;5000954;28;20438;-78
2022/10/26 01:40:23;;;;;;;9.40;4.80;;;13.40;80.10;;;;;;5008532;28;20480;-77
2022/10/26 01:42:54;;;;;;;8.23;4.57;;;13.40;80.30;;;;;;5003072;28;21112;-78
2022/10/26 01:45:24;;;;;;;12.67;5.60;;;13.50;80.40;;;;;;5009469;28;20551;-78
2022/10/26 01:47:56;;;;;;;11.90;5.70;;;13.50;80.40;;;;;;5009108;28;20464;-78
2022/10/26 01:50:25;;;;;;;11.63;4.87;;;13.50;80.50;;;;;;5008697;28;20520;-77
2022/10/26 01:52:54;;;;;;;8.90;5.73;;;13.50;80.60;;;;;;5006773;28;20454;-77
2022/10/26 01:55:48;;;;;;;9.33;4.73;;;13.60;80.70;;;;;;5009572;28;20500;-78
2022/10/26 01:58:52;;;;;;;10.80;5.23;;;13.60;80.70;;;;;;5005407;28;20449;-78
2022/10/26 02:01:35;;;;;;;12.90;6.27;;;13.60;80.80;;;;;;4927614;28;20575;-78
2022/10/26 02:04:15;;;;;;;17.13;5.27;;;13.60;80.70;;;;;;4997311;28;20488;-78
2022/10/26 02:06:53;;;;;;;11.53;5.30;;;13.60;80.80;;;;;;5006352;28;21064;-78
2022/10/26 02:09:28;;;;;;;14.30;4.97;;;13.60;80.90;;;;;;5005798;28;20465;-79
2022/10/26 02:11:58;;;;;;;9.10;5.47;;;13.70;80.90;;;;;;5008306;28;20444;-78
2022/10/26 02:14:36;;;;;;;12.70;5.80;;;13.70;80.90;;;;;;5001824;28;20485;-78
2022/10/26 02:17:09;;;;;;;10.80;6.00;;;13.70;81.00;;;;;;5006833;28;20452;-78
2022/10/26 02:19:43;;;;;;;14.60;6.60;;;13.70;81.00;;;;;;5008511;28;20456;-77
2022/10/26 02:22:16;;;;;;;10.37;6.97;;;13.70;81.00;;;;;;5001681;28;20480;-77
2022/10/26 02:24:45;;;;;;;11.20;6.60;;;13.70;81.00;;;;;;5003807;28;20465;-77
2022/10/26 02:27:20;;;;;;;12.30;5.97;;;13.70;81.10;;;;;;5008454;28;20972;-76
2022/10/26 02:29:50;;;;;;;9.87;5.73;;;13.70;81.10;;;;;;5008086;28;20461;-77
2022/10/26 02:32:20;;;;;;;11.03;6.43;;;13.70;81.20;;;;;;5005805;28;20470;-79
2022/10/26 02:34:51;;;;;;;17.23;7.97;;;13.70;81.20;;;;;;5002891;28;20561;-78
2022/10/26 02:37:21;;;;;;;12.97;6.57;;;13.80;81.10;;;;;;5010508;28;20986;-77
2022/10/26 02:39:52;;;;;;;8.67;5.30;;;13.70;81.30;;;;;;5006018;28;20495;-77
2022/10/26 02:42:20;;;;;;;8.90;5.50;;;13.70;81.30;;;;;;5001945;28;20533;-77
2022/10/26 02:44:52;;;;;;;12.33;6.70;;;13.80;81.30;;;;;;5003399;28;20488;-77
2022/10/26 02:47:21;;;;;;;9.70;6.47;;;13.70;81.30;;;;;;5005889;28;20454;-77
2022/10/26 02:49:50;;;;;;;12.20;6.67;;;13.70;81.10;;;;;;5024252;28;20616;-77
2022/10/26 02:52:23;;;;;;;13.53;6.77;;;13.70;81.30;;;;;;5008864;28;20518;-76
2022/10/26 02:54:54;;;;;;;10.70;6.47;;;13.60;81.40;;;;;;5003166;28;20476;-79
2022/10/26 02:57:27;;;;;;;10.50;5.60;;;13.60;81.50;;;;;;5020980;28;20476;-76
2022/10/26 02:59:56;;;;;;;18.00;7.23;;;13.60;81.50;;;;;;5008710;28;20534;-78
2022/10/26 03:02:25;;;;;;;18.63;6.07;;;13.70;81.60;;;;;;5005258;28;20473;-78
2022/10/26 03:04:56;;;;;;;10.97;7.10;;;13.70;81.70;;;;;;5021886;28;20523;-77
2022/10/26 03:07:24;;;;;;;10.27;6.57;;;13.70;81.70;;;;;;5020232;28;20468;-79
2022/10/26 03:09:52;;;;;;;9.57;6.27;;;13.70;81.70;;;;;;5006995;28;20889;-78
2022/10/26 03:12:20;;;;;;;24.63;7.10;;;13.80;81.70;;;;;;5007621;28;20464;-76
2022/10/26 03:14:48;;;;;;;11.63;5.47;;;13.80;81.70;;;;;;5005929;28;20475;-77
2022/10/26 03:17:16;;;;;;;10.10;5.80;;;13.80;81.70;;;;;;5027600;28;20457;-76
2022/10/26 03:19:44;;;;;;;11.17;5.70;;;13.80;81.80;;;;;;5002152;28;20531;-78
2022/10/26 03:22:13;;;;;;;10.40;6.13;;;13.80;81.80;;;;;;5003382;28;20477;-78
2022/10/26 03:24:41;;;;;;;8.93;6.07;;;13.80;81.80;;;;;;5003843;28;21027;-77
2022/10/26 03:27:09;;;;;;;13.37;7.10;;;13.80;81.80;;;;;;5005998;28;20457;-77
2022/10/26 03:29:37;;;;;;;15.77;6.90;;;13.90;81.80;;;;;;5008907;28;20472;-77
2022/10/26 03:32:06;;;;;;;10.50;6.77;;;13.90;81.80;;;;;;5002138;28;20500;-78
2022/10/26 03:34:34;;;;;;;10.10;5.43;;;13.90;81.80;;;;;;4995858;28;20492;-77
2022/10/26 03:37:02;;;;;;;12.10;5.80;;;13.80;81.90;;;;;;5004424;28;20469;-78
2022/10/26 03:39:31;;;;;;;13.40;6.90;;;13.90;81.90;;;;;;4997042;28;21026;-77
2022/10/26 03:41:59;;;;;;;12.17;7.20;;;13.80;81.80;;;;;;5000862;28;20473;-77
2022/10/26 03:44:27;;;;;;;10.60;6.17;;;13.80;81.90;;;;;;5006440;28;20485;-78
2022/10/26 03:46:55;;;;;;;9.77;6.07;;;13.80;81.90;;;;;;5008168;28;20453;-78
2022/10/26 03:49:23;;;;;;;11.70;7.13;;;13.80;82.00;;;;;;5004944;28;20507;-79
2022/10/26 03:51:51;;;;;;;15.50;7.63;;;13.80;82.00;;;;;;5008510;28;20453;-78
2022/10/26 03:54:19;;;;;;;17.20;7.40;;;13.80;82.10;;;;;;5010882;28;20484;-76
2022/10/26 03:56:49;;;;;;;14.80;8.73;;;13.80;82.10;;;;;;5006508;28;20456;-77
2022/10/26 03:59:22;;;;;;;13.57;7.77;;;13.80;82.10;;;;;;5006574;28;20495;-78
2022/10/26 04:01:50;;;;;;;14.63;7.40;;;13.80;82.10;;;;;;5004676;28;20544;-78
2022/10/26 04:04:23;;;;;;;13.53;6.83;;;13.80;82.10;;;;;;5013525;28;20483;-79
2022/10/26 04:06:51;;;;;;;12.70;6.23;;;13.80;82.20;;;;;;5007500;28;21029;-78
2022/10/26 04:09:20;;;;;;;9.73;6.30;;;13.80;82.20;;;;;;5015505;28;20460;-79
2022/10/26 04:11:49;;;;;;;9.17;6.40;;;13.90;82.20;;;;;;5005261;28;21034;-77
2022/10/26 04:14:17;;;;;;;10.00;6.43;;;13.90;82.20;;;;;;5006685;28;20485;-76
2022/10/26 04:16:45;;;;;;;9.97;5.60;;;13.90;82.20;;;;;;5001165;28;21192;-78
2022/10/26 04:19:13;;;;;;;11.73;6.20;;;13.90;82.20;;;;;;5005413;28;20457;-77
2022/10/26 04:21:41;;;;;;;22.60;6.80;;;13.90;82.20;;;;;;5019543;28;20472;-78
2022/10/26 04:24:10;;;;;;;9.57;6.23;;;13.90;82.20;;;;;;5005294;28;20476;-76
2022/10/26 04:26:38;;;;;;;10.23;5.93;;;13.80;82.20;;;;;;5013951;28;20458;-77
2022/10/26 04:29:08;;;;;;;14.03;7.17;;;13.80;82.30;;;;;;5005985;28;20453;-79
2022/10/26 04:31:36;;;;;;;11.00;7.00;;;13.80;82.30;;;;;;5003095;28;21304;-79
2022/10/26 04:34:04;;;;;;;13.70;7.43;;;13.80;82.30;;;;;;5022742;28;20480;-79
2022/10/26 04:36:33;;;;;;;13.67;6.73;;;13.90;82.30;;;;;;5006863;28;20478;-79
2022/10/26 04:39:01;;;;;;;14.50;6.90;;;13.90;82.30;;;;;;5007125;28;20464;-78
2022/10/26 04:41:29;;;;;;;9.57;6.60;;;13.90;82.30;;;;;;5016672;28;21062;-77
2022/10/26 04:43:57;;;;;;;12.13;6.80;;;13.90;82.30;;;;;;5021070;28;20474;-76
2022/10/26 04:46:26;;;;;;;16.10;7.57;;;13.90;82.40;;;;;;5008875;28;20487;-78
2022/10/26 04:48:54;;;;;;;12.13;7.00;;;13.90;82.30;;;;;;5008299;28;20529;-79
2022/10/26 04:51:22;;;;;;;15.40;7.53;;;13.90;82.30;;;;;;5006266;28;20457;-79
2022/10/26 04:53:53;;;;;;;14.17;7.70;;;13.90;82.40;;;;;;5007958;28;20474;-78
2022/10/26 04:56:21;;;;;;;11.43;7.17;;;13.80;82.30;;;;;;5009734;28;20970;-77
2022/10/26 04:58:49;;;;;;;11.33;7.27;;;13.80;82.30;;;;;;5001916;28;20470;-77
2022/10/26 05:01:16;;;;;;;11.03;6.90;;;13.80;82.40;;;;;;5004640;28;20458;-78
2022/10/26 05:03:49;;;;;;;12.53;7.60;;;13.80;82.40;;;;;;5018876;28;20572;-76
2022/10/26 05:06:17;;;;;;;12.17;7.57;;;13.80;82.40;;;;;;5027072;28;20456;-78
2022/10/26 05:08:45;;;;;;;18.13;8.70;;;13.80;82.40;;;;;;4998852;28;20461;-77
2022/10/26 05:11:13;;;;;;;15.37;9.03;;;13.70;82.30;;;;;;5021417;28;20455;-77
2022/10/26 05:13:41;;;;;;;19.10;9.70;;;13.70;82.30;;;;;;5021130;28;20620;-77
2022/10/26 05:16:09;;;;;;;12.17;9.10;;;13.70;82.50;;;;;;5002371;28;20463;-77
2022/10/26 05:18:37;;;;;;;20.53;9.03;;;13.70;82.60;;;;;;5005682;28;20465;-78
2022/10/26 05:21:06;;;;;;;13.90;8.50;;;13.70;82.70;;;;;;5005551;28;20467;-77
2022/10/26 05:23:34;;;;;;;14.80;9.97;;;13.70;82.70;;;;;;5003379;28;20473;-77
2022/10/26 05:26:03;;;;;;;12.33;7.50;;;13.70;82.70;;;;;;5004827;28;20874;-77
2022/10/26 05:28:31;;;;;;;9.63;6.30;;;13.70;82.60;;;;;;5019321;28;20465;-77
2022/10/26 05:30:59;;;;;;;13.30;6.43;;;13.70;82.60;;;;;;5005955;28;20472;-77
2022/10/26 05:33:27;;;;;;;13.20;6.00;;;13.70;82.60;;;;;;5001062;28;20453;-76
2022/10/26 05:35:55;;;;;;;11.33;6.27;;;13.70;82.50;;;;;;5004362;28;20472;-78
2022/10/26 05:38:24;;;;;;;11.20;6.97;;;13.70;82.50;;;;;;4996486;28;20457;-78
2022/10/26 05:40:55;;;;;;;11.50;7.27;;;13.70;82.50;;;;;;5004334;28;20468;-79
2022/10/26 05:43:23;;;;;;;11.87;6.17;;;13.70;82.40;;;;;;5021494;28;20564;-76
2022/10/26 05:45:52;;;;;;;14.30;6.60;;;13.60;82.40;;;;;;5013532;28;20471;-78
2022/10/26 05:48:20;;;;;;;11.43;6.30;;;13.60;82.40;;;;;;4999986;28;20454;-78
2022/10/26 05:50:48;;;;;;;12.00;6.80;;;13.60;82.40;;;;;;5006419;28;20453;-76
2022/10/26 05:53:16;;;;;;;11.40;6.73;;;13.60;82.30;;;;;;5001929;28;20511;-78
2022/10/26 05:55:46;;;;;;;10.90;7.33;;;13.50;82.20;;;;;;5001785;28;20462;-78
2022/10/26 05:58:15;;;;;;;13.60;7.33;;;13.50;82.20;;;;;;5021821;28;20466;-79
2022/10/26 06:00:54;;;;;;;13.57;6.90;;;13.40;82.30;;;;;;5016263;28;20494;-79
2022/10/26 06:03:38;;;;;;;12.87;6.53;;;13.40;82.40;;;;;;4998136;28;20483;-78
2022/10/26 06:06:11;;;;;;;10.43;5.77;;;13.40;82.30;;;;;;5003265;28;20448;-77
2022/10/26 06:08:41;;;;;;;10.00;6.37;;;13.40;82.20;;;;;;5012768;28;20523;-78
2022/10/26 06:11:12;;;;;;;8.80;5.57;;;13.40;82.10;;;;;;5003643;28;20679;-78
2022/10/26 06:13:40;;;;;;;9.97;6.63;;;13.30;82.00;;;;;;5020145;28;20488;-79
2022/10/26 06:16:25;;;;;;;10.43;6.13;;;13.30;81.90;;;;;;4997144;28;20578;-78
2022/10/26 06:19:06;;;;;;;12.90;5.80;;;13.30;82.10;;;;;;5000936;28;20453;-78
2022/10/26 06:21:47;;;;;;;14.77;8.47;;;13.20;82.30;;;;;;5004689;28;20489;-78
2022/10/26 06:24:22;;;;;;;25.13;14.13;;;13.30;82.30;;;;;;5001814;28;20489;-78
2022/10/26 06:26:59;;;;;;;32.93;17.67;;;13.20;82.20;;;;;;5006422;28;20924;-76
2022/10/26 06:29:38;;;;;;;27.97;14.80;;;13.20;82.20;;;;;;5024046;28;21016;-78
2022/10/26 06:32:08;;;;;;;18.97;12.73;;;13.20;82.20;;;;;;5010358;28;20468;-77
2022/10/26 06:34:39;;;;;;;21.30;12.80;;;13.20;82.20;;;;;;5023766;28;20989;-78
2022/10/26 06:37:08;;;;;;;15.93;11.83;;;13.20;82.30;;;;;;5012098;28;20967;-77
2022/10/26 06:39:39;;;;;;;17.43;11.13;;;13.30;82.30;;;;;;5012691;28;20495;-77
2022/10/26 06:42:10;;;;;;;13.27;8.87;;;13.30;82.30;;;;;;5005598;28;20453;-77
2022/10/26 06:44:39;;;;;;;10.23;7.30;;;13.30;82.10;;;;;;5014042;28;20488;-78
2022/10/26 06:47:15;;;;;;;11.20;6.83;;;13.30;82.10;;;;;;5011176;28;20552;-77
2022/10/26 06:49:58;;;;;;;10.27;6.37;;;13.30;82.20;;;;;;5029307;28;20999;-78
2022/10/26 06:52:33;;;;;;;13.97;6.83;;;13.30;82.20;;;;;;5023782;28;20462;-78
2022/10/26 06:55:03;;;;;;;11.17;6.90;;;13.30;82.20;;;;;;5009851;28;20480;-78
2022/10/26 06:57:36;;;;;;;12.60;6.93;;;13.30;82.30;;;;;;5018586;28;20467;-79
2022/10/26 07:00:07;;;;;;;10.17;6.90;;;13.40;82.30;;;;;;5024934;28;20457;-77
2022/10/26 07:02:35;;;;;;;13.27;7.50;;;13.40;82.30;;;;;;5022019;28;20465;-78
2022/10/26 07:05:03;;;;;;;12.40;7.23;;;13.40;82.40;;;;;;5007917;28;20496;-77
2022/10/26 07:07:31;;;;;;;14.90;7.30;;;13.50;82.40;;;;;;5013783;28;20453;-77
2022/10/26 07:10:00;;;;;;;12.33;7.40;;;13.40;82.40;;;;;;5015637;28;20507;-77
2022/10/26 07:12:28;;;;;;;10.20;7.40;;;13.50;82.40;;;;;;5007760;28;20451;-79
2022/10/26 07:15:01;;;;;;;11.40;7.23;;;13.50;82.40;;;;;;5011800;28;20473;-77
2022/10/26 07:17:30;;;;;;;13.23;8.63;;;13.50;82.60;;;;;;5005337;28;20967;-78
2022/10/26 07:19:58;;;;;;;11.83;7.80;;;13.50;82.60;;;;;;5003040;28;20469;-78
2022/10/26 07:22:26;;;;;;;10.83;7.40;;;13.50;82.60;;;;;;5002795;28;20503;-78
2022/10/26 07:24:54;;;;;;;12.53;7.93;;;13.50;82.50;;;;;;5013852;28;20480;-78
2022/10/26 07:27:26;;;;;;;11.70;6.90;;;13.50;82.50;;;;;;5001910;28;20457;-78
2022/10/26 07:29:54;;;;;;;11.50;7.20;;;13.50;82.60;;;;;;5002330;28;20468;-77
2022/10/26 07:32:23;;;;;;;14.20;8.97;;;13.50;82.70;;;;;;5001519;28;20464;-78
2022/10/26 07:34:51;;;;;;;10.90;7.60;;;13.60;82.70;;;;;;5018121;28;20503;-78
2022/10/26 07:37:19;;;;;;;12.63;7.50;;;13.60;82.80;;;;;;5008905;28;20461;-78
2022/10/26 07:39:47;;;;;;;12.93;8.07;;;13.60;82.80;;;;;;5010390;28;20474;-78
2022/10/26 07:42:15;;;;;;;11.23;7.10;;;13.60;82.80;;;;;;5005071;28;20465;-78
2022/10/26 07:44:43;;;;;;;10.87;7.07;;;13.60;82.90;;;;;;5000126;28;20570;-78
2022/10/26 07:47:11;;;;;;;12.23;8.00;;;13.70;82.90;;;;;;5003859;28;20454;-77
2022/10/26 07:49:41;;;;;;;10.43;6.77;;;13.70;82.90;;;;;;5004618;28;20490;-76
2022/10/26 07:52:10;;;;;;;11.40;6.80;;;13.70;82.90;;;;;;5007132;28;21062;-77
2022/10/26 07:54:38;;;;;;;12.60;6.17;;;13.70;82.90;;;;;;4999849;28;20527;-79
2022/10/26 07:57:06;;;;;;;10.73;6.57;;;13.70;82.90;;;;;;5006717;28;20462;-77
2022/10/26 07:59:34;;;;;;;16.90;8.10;;;13.80;83.00;;;;;;5004738;28;20485;-77
2022/10/26 08:02:01;;;;;;;14.33;7.70;;;13.80;83.00;;;;;;4998594;28;20459;-76
2022/10/26 08:04:30;;;;;;;11.07;6.60;;;13.80;83.10;;;;;;5015251;28;20561;-78
2022/10/26 08:06:59;;;;;;;9.53;6.93;;;13.80;83.10;;;;;;5006465;28;20570;-79
2022/10/26 08:09:27;;;;;;;12.43;6.77;;;13.80;83.20;;;;;;5002479;28;20453;-76
2022/10/26 08:11:55;;;;;;;11.50;8.17;;;13.90;83.20;;;;;;5003239;28;20468;-78
2022/10/26 08:14:23;;;;;;;11.43;7.77;;;13.90;83.20;;;;;;5018125;28;20872;-78
2022/10/26 08:16:51;;;;;;;13.73;7.30;;;13.90;83.20;;;;;;5001755;28;20465;-78
2022/10/26 08:19:19;;;;;;;14.10;7.73;;;14.00;83.20;;;;;;5006296;28;20472;-78
2022/10/26 08:21:47;;;;;;;11.80;7.70;;;14.00;83.10;;;;;;5006364;28;20460;-78
2022/10/26 08:24:17;;;;;;;10.73;6.70;;;14.00;83.10;;;;;;5002748;28;20490;-78
2022/10/26 08:26:45;;;;;;;12.37;7.70;;;14.00;83.20;;;;;;5003845;28;20451;-78
2022/10/26 08:29:13;;;;;;;17.70;8.20;;;14.00;83.20;;;;;;5003476;28;20460;-78
2022/10/26 08:31:42;;;;;;;12.67;6.80;;;14.10;83.20;;;;;;5015604;28;20457;-77
2022/10/26 08:34:10;;;;;;;8.60;6.30;;;14.10;83.20;;;;;;5026258;28;20543;-78
2022/10/26 08:36:38;;;;;;;11.77;6.97;;;14.10;83.30;;;;;;5020782;28;20472;-78
2022/10/26 08:39:06;;;;;;;11.40;7.20;;;14.10;83.30;;;;;;5004910;28;20469;-78
2022/10/26 08:41:37;;;;;;;10.63;6.53;;;14.20;83.30;;;;;;5001700;28;20512;-78
2022/10/26 08:44:20;;;;;;;14.73;7.20;;;14.20;83.30;;;;;;5007579;28;21360;-78
2022/10/26 08:46:53;;;;;;;12.13;8.07;;;14.30;83.30;;;;;;5002841;28;20884;-77
2022/10/26 08:49:24;;;;;;;16.60;7.03;;;14.30;83.30;;;;;;5003297;28;21051;-77
2022/10/26 08:51:57;;;;;;;13.73;7.47;;;14.30;83.30;;;;;;5004825;28;20457;-78
2022/10/26 08:54:36;;;;;;;14.20;9.13;;;14.30;83.30;;;;;;5024112;28;20600;-77
2022/10/26 08:57:16;;;;;;;11.27;7.03;;;14.30;83.40;;;;;;5011545;28;20462;-78
2022/10/26 08:59:52;;;;;;;12.57;7.30;;;14.30;83.50;;;;;;5003175;28;20471;-78
2022/10/26 09:02:21;;;;;;;24.70;15.67;;;14.40;83.60;;;;;;5003986;28;20460;-78
2022/10/26 09:04:49;;;;;;;19.40;10.90;;;14.50;83.60;;;;;;5005228;28;20915;-78
2022/10/26 09:07:31;;;;;;;14.30;9.10;;;14.50;83.70;;;;;;5001703;28;20457;-78
2022/10/26 09:10:08;;;;;;;19.27;8.87;;;14.50;83.70;;;;;;5008626;28;20449;-78
2022/10/26 09:12:46;;;;;;;13.53;8.00;;;14.60;83.80;;;;;;4998629;28;20498;-79
2022/10/26 09:15:20;;;;;;;11.77;7.70;;;14.70;83.90;;;;;;5002306;28;20488;-77
2022/10/26 09:17:57;;;;;;;10.67;6.53;;;14.70;83.90;;;;;;4998129;28;20461;-78
2022/10/26 09:20:46;;;;;;;9.10;6.17;;;14.80;83.90;;;;;;5009470;28;20453;-78
2022/10/26 09:23:37;;;;;;;10.37;6.57;;;14.80;84.00;;;;;;5001686;28;20520;-77
2022/10/26 09:26:11;;;;;;;11.50;6.77;;;14.90;84.00;;;;;;5004918;28;21064;-78
2022/10/26 09:28:44;;;;;;;11.03;6.40;;;14.90;84.00;;;;;;5003072;28;20456;-78
2022/10/26 09:31:15;;;;;;;10.27;6.80;;;15.00;84.10;;;;;;4995424;28;21291;-79
2022/10/26 09:33:43;;;;;;;11.03;6.87;;;15.00;84.10;;;;;;5000396;28;20476;-76
2022/10/26 09:36:17;;;;;;;10.07;6.93;;;15.10;84.20;;;;;;5019224;28;20544;-77
2022/10/26 09:38:51;;;;;;;11.70;6.30;;;15.10;84.30;;;;;;5010934;28;20460;-78
2022/10/26 09:41:25;;;;;;;9.97;7.30;;;15.20;84.40;;;;;;4997581;28;20456;-79
2022/10/26 09:44:08;;;;;;;14.63;8.23;;;15.20;84.30;;;;;;5008243;28;20491;-79
2022/10/26 09:46:46;;;;;;;9.47;7.27;;;15.20;84.40;;;;;;5002195;28;20460;-78
2022/10/26 09:49:17;;;;;;;9.13;6.57;;;15.20;84.40;;;;;;5018685;28;20468;-77
2022/10/26 09:51:45;;;;;;;12.53;7.00;;;15.20;84.40;;;;;;5003188;28;20457;-78
2022/10/26 09:54:17;;;;;;;12.50;7.77;;;15.20;84.40;;;;;;4995859;28;21330;-78
2022/10/26 09:56:49;;;;;;;13.03;7.90;;;15.20;84.40;;;;;;5004237;28;20464;-78
2022/10/26 09:59:22;;;;;;;10.77;7.13;;;15.30;84.50;;;;;;5007639;28;20468;-78
2022/10/26 10:01:50;;;;;;;16.87;8.00;;;15.30;84.50;;;;;;5009755;28;21330;-77
2022/10/26 10:04:21;;;;;;;11.93;7.37;;;15.30;84.40;;;;;;5005179;28;21051;-77
2022/10/26 10:06:51;;;;;;;12.63;7.60;;;15.30;84.40;;;;;;5016186;28;20524;-78
2022/10/26 10:09:20;;;;;;;11.10;7.30;;;15.30;84.30;;;;;;5006437;28;20511;-79
2022/10/26 10:11:55;;;;;;;12.20;7.70;;;15.40;84.30;;;;;;5006794;28;20453;-79
2022/10/26 10:14:26;;;;;;;11.10;7.10;;;15.40;84.30;;;;;;5013755;28;20468;-79
2022/10/26 10:16:56;;;;;;;15.37;7.40;;;15.40;84.30;;;;;;5007725;28;20815;-77
2022/10/26 10:19:27;;;;;;;13.00;8.40;;;15.40;84.30;;;;;;5004539;28;20459;-77
2022/10/26 10:21:58;;;;;;;17.03;11.50;;;15.40;84.30;;;;;;5014394;28;20452;-76
2022/10/26 10:24:30;;;;;;;18.40;11.83;;;15.50;84.40;;;;;;5008396;28;20477;-77
2022/10/26 10:27:00;;;;;;;18.20;10.57;;;15.50;84.40;;;;;;5010911;28;20817;-78
2022/10/26 10:29:32;;;;;;;13.77;8.07;;;15.50;84.50;;;;;;5002809;28;20507;-78
2022/10/26 10:32:01;;;;;;;14.83;7.63;;;15.50;84.50;;;;;;5007799;28;20508;-80
2022/10/26 10:34:31;;;;;;;9.83;6.53;;;15.60;84.60;;;;;;5016900;28;20539;-80
2022/10/26 10:36:59;;;;;;;10.70;6.57;;;15.60;84.70;;;;;;5004124;28;21484;-78
2022/10/26 10:39:38;;;;;;;12.23;6.10;;;15.60;84.80;;;;;;5003557;28;20468;-76
2022/10/26 10:42:16;;;;;;;10.60;5.33;;;15.70;84.80;;;;;;4999897;28;20460;-79
2022/10/26 10:44:48;;;;;;;10.17;4.57;;;15.70;84.90;;;;;;5021245;28;20488;-79
2022/10/26 10:47:22;;;;;;;8.50;4.73;;;15.70;85.00;;;;;;5002891;28;20837;-77
2022/10/26 10:49:56;;;;;;;12.23;4.30;;;15.80;85.10;;;;;;5008386;28;20452;-78
2022/10/26 10:52:30;;;;;;;8.63;3.70;;;15.80;85.20;;;;;;5007142;28;20462;-79
2022/10/26 10:55:15;;;;;;;9.70;3.83;;;15.90;85.20;;;;;;5014035;28;20484;-78
2022/10/26 10:57:59;;;;;;;9.87;3.60;;;16.00;85.30;;;;;;5023090;28;20983;-76
2022/10/26 11:00:30;;;;;;;10.00;3.50;;;16.00;85.40;;;;;;5004705;28;20466;-78
2022/10/26 11:03:39;;;;;;;9.70;3.50;;;16.20;85.50;;;;;;5024388;28;20894;-76
2022/10/26 11:06:13;;;;;;;8.20;3.87;;;16.30;85.50;;;;;;5004601;28;20484;-79
2022/10/26 11:08:46;;;;;;;8.10;3.73;;;16.30;85.70;;;;;;5004872;28;20456;-80
2022/10/26 11:11:20;;;;;;;7.33;3.50;;;16.40;85.70;;;;;;5006996;28;20457;-77
2022/10/26 11:13:53;;;;;;;9.77;4.37;;;16.50;85.80;;;;;;5007130;28;20485;-78
2022/10/26 11:16:27;;;;;;;11.33;3.30;;;16.60;85.70;;;;;;5005626;28;20525;-79
2022/10/26 11:18:59;;;;;;;8.13;3.83;;;16.60;85.60;;;;;;5013808;28;20881;-79
2022/10/26 11:21:29;;;;;;;10.73;3.70;;;16.70;85.50;;;;;;5001309;28;20475;-79
2022/10/26 11:24:10;;;;;;;6.90;3.47;;;16.70;85.60;;;;;;5023016;28;20479;-78
2022/10/26 11:26:42;;;;;;;7.13;2.97;;;16.80;85.60;;;;;;4997502;28;20479;-77
2022/10/26 11:29:23;;;;;;;7.77;4.37;;;16.80;85.60;;;;;;5002824;28;20877;-78
2022/10/26 11:31:58;;;;;;;6.10;3.43;;;16.90;85.60;;;;;;5003444;28;20689;-78
2022/10/26 11:34:31;;;;;;;18.63;4.37;;;16.90;85.70;;;;;;5006417;28;20488;-76
2022/10/26 11:37:05;;;;;;;10.40;4.10;;;17.00;85.70;;;;;;5017873;28;20461;-77
2022/10/26 11:39:43;;;;;;;9.73;3.50;;;17.10;85.60;;;;;;5004373;28;20464;-76
2022/10/26 11:42:21;;;;;;;6.90;3.20;;;17.10;85.60;;;;;;5004424;28;21351;-78
2022/10/26 11:44:52;;;;;;;8.50;3.50;;;17.20;85.50;;;;;;5005668;28;20480;-78
2022/10/26 11:47:29;;;;;;;10.10;3.40;;;17.20;85.40;;;;;;4997654;28;20465;-77
2022/10/26 11:50:04;;;;;;;11.17;3.80;;;17.20;85.50;;;;;;5005449;28;20453;-77
2022/10/26 11:52:39;;;;;;;9.17;3.20;;;17.30;85.50;;;;;;5006148;28;20460;-77
2022/10/26 11:55:10;;;;;;;9.30;3.70;;;17.40;85.50;;;;;;5004666;28;20472;-77
2022/10/26 11:57:40;;;;;;;8.10;3.43;;;17.40;85.40;;;;;;5003523;28;20465;-77
2022/10/26 12:00:14;;;;;;;8.50;4.20;;;17.50;85.30;;;;;;5005878;28;20449;-78
2022/10/26 12:02:48;;;;;;;9.47;4.17;;;17.50;85.30;;;;;;5003079;28;20985;-78
2022/10/26 12:05:23;;;;;;;12.77;3.60;;;17.60;85.30;;;;;;5016287;28;20615;-78
2022/10/26 12:07:55;;;;;;;9.67;3.83;;;17.60;85.30;;;;;;5000133;28;20468;-77
2022/10/26 12:10:29;;;;;;;7.30;3.73;;;17.60;85.20;;;;;;5003552;28;20545;-78
2022/10/26 12:13:07;;;;;;;7.27;4.00;;;17.70;85.30;;;;;;5016436;28;20461;-78
2022/10/26 12:15:42;;;;;;;8.00;4.00;;;17.70;85.20;;;;;;5020441;28;20476;-76
2022/10/26 12:18:38;;;;;;;6.43;4.03;;;17.80;85.20;;;;;;5000254;28;20973;-78
2022/10/26 12:21:27;;;;;;;8.00;3.27;;;17.80;85.10;;;;;;5000587;28;20453;-77
2022/10/26 12:23:58;;;;;;;10.90;3.70;;;17.90;85.20;;;;;;5007633;28;20492;-77
2022/10/26 12:26:40;;;;;;;9.80;3.43;;;17.90;85.20;;;;;;5001079;28;20481;-78
2022/10/26 12:29:37;;;;;;;10.57;3.40;;;18.00;85.10;;;;;;5001783;28;20525;-78
2022/10/26 12:32:47;;;;;;;7.73;2.80;;;18.00;85.10;;;;;;5021449;28;20460;-78
2022/10/26 12:35:38;;;;;;;10.93;3.50;;;18.10;85.20;;;;;;4999321;28;20469;-78
2022/10/26 12:38:48;;;;;;;6.20;2.97;;;18.20;85.10;;;;;;5000144;28;20462;-77
2022/10/26 12:41:27;;;;;;;9.20;3.20;;;18.20;84.90;;;;;;4971777;28;20458;-79
2022/10/26 12:44:01;;;;;;;8.70;3.60;;;18.30;84.70;;;;;;5022860;28;20570;-78
2022/10/26 12:46:39;;;;;;;7.27;3.30;;;18.30;84.70;;;;;;5001442;28;20480;-78
2022/10/26 12:49:58;;;;;;;9.80;3.30;;;18.30;84.60;;;;;;4997270;28;20522;-77
2022/10/26 12:52:40;;;;;;;7.90;3.40;;;18.40;84.40;;;;;;5000040;28;20480;-76
2022/10/26 12:55:30;;;;;;;8.73;3.27;;;18.40;84.50;;;;;;4998961;28;20475;-78
2022/10/26 12:58:35;;;;;;;8.10;2.80;;;18.40;84.50;;;;;;5001845;28;20452;-77
2022/10/26 13:01:30;;;;;;;7.00;2.73;;;18.40;84.40;;;;;;4995212;28;20451;-78
2022/10/26 13:04:11;;;;;;;7.80;2.97;;;18.50;84.50;;;;;;5001547;28;21034;-78
2022/10/26 13:07:13;;;;;;;6.67;2.93;;;18.50;84.40;;;;;;5004626;28;20487;-76